createdAt,value
2023-05-01T00:02:11.533Z,75.50
2023-05-01T00:04:45.992Z,75.70
2023-05-01T00:07:19.740Z,75.50
2023-05-01T00:09:48.005Z,75.70
2023-05-01T00:12:24.961Z,75.70
2023-05-01T00:14:57.366Z,75.90
2023-05-01T00:17:29.045Z,75.80
2023-05-01T00:20:20.370Z,75.90
2023-05-01T00:22:48.760Z,75.60
2023-05-01T00:25:29.995Z,75.70
2023-05-01T00:28:03.184Z,75.90
2023-05-01T00:30:40.456Z,76.00
2023-05-01T00:33:18.960Z,75.90
2023-05-01T00:35:52.503Z,75.90
2023-05-01T00:38:29.115Z,75.90
2023-05-01T00:41:00.119Z,76.10
2023-05-01T00:43:44.549Z,76.10
2023-05-01T00:46:12.687Z,76.40
2023-05-01T00:48:45.061Z,76.10
2023-05-01T00:51:17.146Z,76.40
2023-05-01T00:53:49.687Z,76.50
2023-05-01T00:56:20.852Z,76.20
2023-05-01T00:58:54.550Z,77.00
2023-05-01T01:01:27.048Z,76.20
2023-05-01T01:03:58.607Z,76.80
2023-05-01T01:06:36.605Z,76.30
2023-05-01T01:09:26.276Z,76.40
2023-05-01T01:12:05.768Z,76.30
2023-05-01T01:14:43.602Z,76.40
2023-05-01T01:17:21.253Z,76.20
2023-05-01T01:20:34.125Z,76.40
2023-05-01T01:23:24.112Z,76.50
2023-05-01T01:26:07.230Z,76.60
2023-05-01T01:29:16.219Z,76.50
2023-05-01T01:31:54.851Z,76.30
2023-05-01T01:34:35.337Z,76.30
2023-05-01T01:37:06.272Z,76.40
2023-05-01T01:39:45.933Z,76.40
2023-05-01T01:42:21.808Z,76.40
2023-05-01T01:44:54.978Z,76.60
2023-05-01T01:47:32.071Z,76.40
2023-05-01T01:50:06.149Z,76.50
2023-05-01T01:52:39.810Z,76.60
2023-05-01T01:55:18.342Z,76.40
2023-05-01T01:57:50.721Z,76.40
2023-05-01T02:00:21.831Z,76.50
2023-05-01T02:02:53.017Z,76.60
2023-05-01T02:05:32.120Z,76.60
2023-05-01T02:08:00.968Z,76.80
2023-05-01T02:10:33.225Z,77.30
2023-05-01T02:13:03.089Z,76.60
2023-05-01T02:15:36.665Z,76.80
2023-05-01T02:18:06.766Z,76.90
2023-05-01T02:20:41.641Z,77.50
2023-05-01T02:23:11.519Z,76.80
2023-05-01T02:25:42.295Z,77.60
2023-05-01T02:28:13.973Z,76.80
2023-05-01T02:30:43.425Z,76.80
2023-05-01T02:33:13.427Z,76.70
2023-05-01T02:35:47.954Z,76.70
2023-05-01T02:38:18.707Z,76.60
2023-05-01T02:40:50.557Z,76.70
2023-05-01T02:43:25.768Z,76.70
2023-05-01T02:45:59.152Z,76.90
2023-05-01T02:48:30.864Z,76.80
2023-05-01T02:51:04.214Z,76.90
2023-05-01T02:53:35.138Z,76.90
2023-05-01T02:56:12.330Z,77.00
2023-05-01T02:58:41.097Z,77.00
2023-05-01T03:01:11.194Z,76.80
2023-05-01T03:03:44.442Z,77.00
2023-05-01T03:06:14.259Z,77.00
2023-05-01T03:08:43.747Z,77.10
2023-05-01T03:11:14.059Z,77.00
2023-05-01T03:13:44.641Z,77.00
2023-05-01T03:16:19.620Z,76.80
2023-05-01T03:18:53.593Z,76.90
2023-05-01T03:21:33.971Z,77.10
2023-05-01T03:24:11.780Z,77.20
2023-05-01T03:26:49.323Z,77.20
2023-05-01T03:45:44.265Z,77.20
2023-05-01T03:49:17.526Z,77.10
2023-05-01T04:16:26.087Z,77.40
2023-05-01T04:36:24.276Z,77.40
2023-05-01T04:57:22.447Z,77.90
2023-05-01T05:07:44.300Z,77.60
2023-05-01T05:15:23.914Z,77.80
2023-05-01T05:22:47.381Z,77.60
2023-05-01T05:50:41.858Z,77.10
2023-05-01T05:53:09.908Z,77.10
2023-05-01T05:55:37.798Z,77.10
2023-05-01T05:58:05.921Z,76.90
2023-05-01T06:00:33.820Z,77.10
2023-05-01T06:03:02.540Z,77.00
2023-05-01T06:05:30.861Z,77.00
2023-05-01T06:08:02.386Z,76.90
2023-05-01T06:10:30.362Z,77.00
2023-05-01T06:13:10.969Z,77.20
2023-05-01T06:15:43.688Z,77.10
2023-05-01T06:18:12.027Z,77.10
2023-05-01T06:20:40.043Z,77.10
2023-05-01T06:23:10.000Z,77.20
2023-05-01T06:26:01.921Z,77.00
2023-05-01T06:28:29.756Z,77.10
2023-05-01T06:32:02.383Z,76.80
2023-05-01T06:34:30.783Z,77.00
2023-05-01T06:36:58.637Z,76.90
2023-05-01T06:39:27.803Z,77.10
2023-05-01T06:41:55.730Z,76.70
2023-05-01T06:44:23.927Z,76.90
2023-05-01T06:46:51.806Z,76.80
2023-05-01T06:49:19.660Z,76.80
2023-05-01T06:51:47.500Z,76.90
2023-05-01T06:54:15.332Z,77.10
2023-05-01T06:56:44.525Z,77.00
2023-05-01T06:59:21.768Z,76.90
2023-05-01T07:01:49.707Z,76.80
2023-05-01T07:04:47.738Z,76.90
2023-05-01T07:07:15.633Z,76.90
2023-05-01T07:09:43.529Z,76.90
2023-05-01T07:12:12.956Z,76.90
2023-05-01T07:14:41.555Z,76.80
2023-05-01T07:17:10.137Z,76.80
2023-05-01T07:19:38.153Z,76.70
2023-05-01T07:22:05.973Z,76.60
2023-05-01T07:24:33.852Z,76.60
2023-05-01T07:27:01.696Z,76.60
2023-05-01T07:29:30.924Z,76.50
2023-05-01T07:31:59.202Z,76.60
2023-05-01T07:34:27.584Z,76.50
2023-05-01T07:36:56.364Z,76.50
2023-05-01T07:39:24.248Z,76.60
2023-05-01T07:41:52.255Z,76.60
2023-05-01T07:44:20.240Z,76.60
2023-05-01T07:46:49.465Z,76.70
2023-05-01T07:49:42.763Z,76.60
2023-05-01T07:52:10.957Z,76.50
2023-05-01T07:54:42.962Z,76.50
2023-05-01T07:57:48.121Z,76.60
2023-05-01T08:00:16.966Z,76.60
2023-05-01T08:02:46.457Z,76.80
2023-05-01T08:05:14.350Z,77.00
2023-05-01T08:07:44.990Z,77.00
2023-05-01T08:10:24.824Z,76.80
2023-05-01T08:16:53.948Z,76.80
2023-05-01T08:19:26.645Z,77.00
2023-05-01T08:21:54.833Z,77.10
2023-05-01T08:24:38.162Z,76.90
2023-05-01T08:27:14.959Z,77.00
2023-05-01T08:29:43.112Z,77.00
2023-05-01T08:32:11.369Z,77.10
2023-05-01T08:35:22.251Z,77.10
2023-05-01T08:37:58.380Z,77.10
2023-05-01T09:17:10.212Z,76.70
2023-05-01T09:19:38.592Z,76.90
2023-05-01T09:22:10.847Z,76.70
2023-05-01T09:25:26.103Z,76.70
2023-05-01T09:30:55.879Z,76.70
2023-05-01T09:33:46.269Z,76.70
2023-05-01T09:39:29.674Z,76.70
2023-05-01T09:45:21.688Z,76.60
2023-05-01T09:47:50.011Z,77.60
2023-05-01T09:50:32.292Z,78.30
2023-05-01T09:53:02.698Z,78.60
2023-05-01T09:55:30.584Z,77.70
2023-05-01T09:57:59.022Z,78.40
2023-05-01T10:00:27.103Z,77.00
2023-05-01T10:02:55.291Z,76.50
2023-05-01T10:05:24.727Z,75.90
2023-05-01T10:08:03.468Z,75.60
2023-05-01T10:10:31.423Z,75.00
2023-05-01T10:13:14.937Z,75.40
2023-05-01T10:15:45.466Z,75.00
2023-05-01T10:18:15.288Z,75.40
2023-05-01T10:20:43.562Z,75.00
2023-05-01T10:23:17.043Z,75.50
2023-05-01T10:25:55.126Z,74.20
2023-05-01T10:28:25.135Z,73.80
2023-05-01T10:30:54.002Z,73.60
2023-05-01T10:33:21.895Z,73.50
2023-05-01T10:35:58.469Z,73.70
2023-05-01T10:38:35.005Z,73.80
2023-05-01T10:41:03.905Z,72.80
2023-05-01T10:43:33.014Z,72.60
2023-05-01T10:46:37.663Z,72.10
2023-05-01T10:56:45.396Z,72.50
2023-05-01T10:59:13.402Z,71.60
2023-05-01T11:01:42.699Z,71.20
2023-05-01T11:05:11.833Z,71.90
2023-05-01T11:07:40.770Z,72.10
2023-05-01T11:10:27.143Z,71.40
2023-05-01T11:21:14.979Z,71.40
2023-05-01T11:24:44.896Z,69.50
2023-05-01T11:27:29.934Z,69.10
2023-05-01T11:40:55.995Z,69.90
2023-05-01T11:43:24.103Z,69.70
2023-05-01T11:45:55.355Z,69.10
2023-05-01T11:48:23.661Z,69.80
2023-05-01T11:50:51.674Z,65.90
2023-05-01T11:53:19.461Z,66.70
2023-05-01T11:55:49.380Z,66.40
2023-05-01T11:58:17.130Z,65.40
2023-05-01T12:00:44.972Z,66.40
2023-05-01T12:03:14.743Z,64.80
2023-05-01T12:05:44.372Z,64.40
2023-05-01T12:08:14.108Z,64.60
2023-05-01T12:10:43.198Z,64.10
2023-05-01T12:13:14.350Z,62.90
2023-05-01T12:15:45.908Z,62.00
2023-05-01T12:18:14.528Z,62.80
2023-05-01T12:20:43.459Z,62.10
2023-05-01T12:23:13.251Z,63.90
2023-05-01T12:25:42.808Z,64.00
2023-05-01T12:28:14.488Z,63.60
2023-05-01T12:30:43.354Z,62.90
2023-05-01T12:33:12.635Z,63.30
2023-05-01T12:35:41.365Z,63.70
2023-05-01T12:38:13.954Z,62.90
2023-05-01T12:40:50.589Z,61.90
2023-05-01T12:43:20.351Z,61.60
2023-05-01T12:45:54.394Z,62.10
2023-05-01T12:48:22.379Z,60.90
2023-05-01T12:50:54.488Z,61.00
2023-05-01T12:53:23.267Z,62.40
2023-05-01T12:55:52.980Z,60.50
2023-05-01T12:58:22.186Z,61.50
2023-05-01T13:00:52.305Z,60.60
2023-05-01T13:03:24.794Z,60.10
2023-05-01T13:05:54.385Z,60.10
2023-05-01T13:08:30.046Z,60.10
2023-05-01T13:10:59.127Z,60.30
2023-05-01T13:13:29.828Z,60.80
2023-05-01T13:16:08.979Z,61.20
2023-05-01T13:18:44.831Z,61.00
2023-05-01T13:21:14.604Z,60.00
2023-05-01T13:23:42.899Z,60.50
2023-05-01T13:26:11.599Z,61.00
2023-05-01T13:28:46.073Z,61.00
2023-05-01T13:31:15.420Z,60.20
2023-05-01T13:33:43.945Z,59.40
2023-05-01T13:36:25.414Z,60.00
2023-05-01T13:38:57.173Z,59.90
2023-05-01T13:41:27.195Z,59.30
2023-05-01T13:43:57.684Z,58.90
2023-05-01T13:46:26.916Z,59.30
2023-05-01T13:48:54.900Z,60.30
2023-05-01T13:51:25.436Z,60.30
2023-05-01T13:53:54.417Z,61.40
2023-05-01T13:56:22.504Z,61.50
2023-05-01T13:58:51.049Z,63.10
2023-05-01T14:01:22.702Z,61.40
2023-05-01T14:03:51.456Z,61.30
2023-05-01T14:06:20.856Z,61.10
2023-05-01T14:08:49.911Z,61.30
2023-05-01T14:11:18.029Z,61.30
2023-05-01T14:13:47.009Z,60.60
2023-05-01T14:16:24.642Z,59.70
2023-05-01T14:18:54.395Z,59.20
2023-05-01T14:21:23.844Z,59.20
2023-05-01T14:23:53.428Z,59.00
2023-05-01T14:26:23.724Z,59.70
2023-05-01T14:28:51.502Z,58.50
2023-05-01T14:31:28.277Z,58.50
2023-05-01T14:33:58.642Z,59.30
2023-05-01T14:36:28.168Z,59.40
2023-05-01T14:38:57.583Z,59.10
2023-05-01T14:41:25.510Z,60.10
2023-05-01T14:43:54.063Z,61.00
2023-05-01T14:46:31.246Z,59.60
2023-05-01T14:48:59.385Z,60.00
2023-05-01T14:51:27.523Z,59.60
2023-05-01T14:53:55.888Z,59.30
2023-05-01T14:56:23.830Z,60.60
2023-05-01T14:58:51.562Z,61.50
2023-05-01T15:01:19.759Z,60.00
2023-05-01T15:03:49.429Z,58.80
2023-05-01T15:06:17.447Z,58.30
2023-05-01T15:08:45.478Z,58.80
2023-05-01T15:11:15.068Z,58.90
2023-05-01T15:13:44.190Z,58.60
2023-05-01T15:16:12.025Z,58.50
2023-05-01T15:18:40.081Z,58.40
2023-05-01T15:21:09.251Z,58.20
2023-05-01T15:23:37.370Z,58.50
2023-05-01T15:26:05.175Z,58.60
2023-05-01T15:28:33.119Z,59.40
2023-05-01T15:31:00.862Z,60.00
2023-05-01T15:33:28.670Z,60.10
2023-05-01T15:35:56.444Z,60.50
2023-05-01T15:38:27.177Z,60.40
2023-05-01T15:40:56.190Z,59.30
2023-05-01T15:43:24.407Z,58.60
2023-05-01T15:45:52.811Z,59.30
2023-05-01T15:48:20.760Z,59.70
2023-05-01T15:50:49.273Z,59.40
2023-05-01T15:53:17.651Z,58.70
2023-05-01T15:55:46.736Z,58.80
2023-05-01T15:58:15.868Z,59.50
2023-05-01T16:00:47.165Z,58.20
2023-05-01T16:03:16.249Z,57.20
2023-05-01T16:05:46.324Z,56.90
2023-05-01T16:08:14.409Z,57.70
2023-05-01T16:10:42.280Z,58.20
2023-05-01T16:13:11.451Z,58.50
2023-05-01T16:15:39.686Z,58.40
2023-05-01T16:18:07.544Z,58.20
2023-05-01T16:20:43.361Z,58.10
2023-05-01T16:23:12.571Z,58.10
2023-05-01T16:25:43.561Z,57.60
2023-05-01T16:28:12.983Z,58.50
2023-05-01T16:30:42.793Z,58.60
2023-05-01T16:33:18.246Z,58.50
2023-05-01T16:35:48.058Z,59.20
2023-05-01T16:38:15.957Z,59.80
2023-05-01T16:40:44.939Z,60.00
2023-05-01T16:43:14.172Z,60.00
2023-05-01T16:45:42.248Z,59.50
2023-05-01T16:48:10.326Z,59.60
2023-05-01T16:50:41.155Z,60.20
2023-05-01T16:53:08.902Z,59.80
2023-05-01T16:55:36.683Z,59.60
2023-05-01T16:58:04.437Z,59.60
2023-05-01T17:00:33.724Z,60.20
2023-05-01T17:03:02.160Z,59.90
2023-05-01T17:05:29.965Z,60.30
2023-05-01T17:07:57.699Z,60.00
2023-05-01T17:10:25.474Z,60.00
2023-05-01T17:12:53.204Z,59.90
2023-05-01T17:15:22.035Z,60.30
2023-05-01T17:17:51.170Z,59.90
2023-05-01T17:20:18.993Z,60.00
2023-05-01T17:22:46.788Z,60.30
2023-05-01T17:25:15.041Z,61.00
2023-05-01T17:27:42.763Z,61.50
2023-05-01T17:30:10.936Z,62.00
2023-05-01T17:32:38.792Z,62.60
2023-05-01T17:35:08.939Z,63.10
2023-05-01T17:37:39.651Z,63.50
2023-05-01T17:40:10.910Z,63.80
2023-05-01T17:42:38.692Z,63.80
2023-05-01T17:45:07.744Z,63.60
2023-05-01T17:47:35.597Z,63.60
2023-05-01T17:50:06.963Z,63.80
2023-05-01T17:52:36.075Z,64.60
2023-05-01T17:55:04.644Z,65.20
2023-05-01T17:57:33.075Z,65.60
2023-05-01T18:00:29.964Z,65.70
2023-05-01T18:02:58.012Z,65.70
2023-05-01T18:05:26.144Z,66.10
2023-05-01T18:08:06.380Z,66.30
2023-05-01T18:10:34.453Z,66.50
2023-05-01T18:13:05.181Z,66.60
2023-05-01T18:15:37.604Z,66.80
2023-05-01T18:18:09.979Z,67.00
2023-05-01T18:20:38.155Z,67.10
2023-05-01T18:23:08.970Z,67.20
2023-05-01T18:25:38.167Z,67.30
2023-05-01T18:28:06.462Z,67.40
2023-05-01T18:30:34.536Z,67.30
2023-05-01T18:33:05.731Z,67.30
2023-05-01T18:35:38.019Z,67.40
2023-05-01T18:38:09.358Z,67.50
2023-05-01T18:40:37.791Z,67.70
2023-05-01T18:43:13.242Z,67.70
2023-05-01T18:45:43.497Z,67.80
2023-05-01T18:48:11.921Z,68.00
2023-05-01T18:50:39.978Z,68.20
2023-05-01T18:53:09.298Z,68.30
2023-05-01T18:55:37.205Z,68.30
2023-05-01T18:58:05.048Z,68.50
2023-05-01T19:00:32.893Z,68.50
2023-05-01T19:03:00.946Z,68.60
2023-05-01T19:05:28.852Z,68.70
2023-05-01T19:08:00.767Z,68.90
2023-05-01T19:10:29.944Z,69.10
2023-05-01T19:12:57.852Z,69.20
2023-05-01T19:15:25.758Z,69.30
2023-05-01T19:17:54.892Z,69.50
2023-05-01T19:20:22.640Z,69.60
2023-05-01T19:22:50.452Z,69.80
2023-05-01T19:25:18.287Z,70.00
2023-05-01T19:27:47.472Z,70.00
2023-05-01T19:30:15.450Z,70.10
2023-05-01T19:32:43.269Z,70.30
2023-05-01T19:35:12.323Z,70.50
2023-05-01T19:37:40.662Z,70.50
2023-05-01T19:40:09.387Z,70.60
2023-05-01T19:42:37.326Z,70.80
2023-05-01T19:45:07.825Z,70.80
2023-05-01T19:47:35.878Z,71.00
2023-05-01T19:50:04.538Z,71.00
2023-05-01T19:52:32.395Z,71.00
2023-05-01T19:55:02.136Z,71.20
2023-05-01T19:57:29.915Z,71.30
2023-05-01T19:59:58.896Z,71.40
2023-05-01T20:02:28.724Z,71.70
2023-05-01T20:04:56.666Z,71.90
2023-05-01T20:07:24.531Z,72.00
2023-05-01T20:09:52.804Z,72.20
2023-05-01T20:12:22.472Z,72.20
2023-05-01T20:14:50.241Z,72.30
2023-05-01T20:17:18.019Z,72.40
2023-05-01T20:19:47.073Z,72.60
2023-05-01T20:22:14.808Z,72.60
2023-05-01T20:24:42.562Z,72.80
2023-05-01T20:27:10.287Z,72.90
2023-05-01T20:29:39.275Z,72.90
2023-05-01T20:32:07.194Z,72.90
2023-05-01T20:34:34.935Z,73.00
2023-05-01T20:37:04.047Z,73.20
2023-05-01T20:39:31.773Z,73.20
2023-05-01T20:42:00.739Z,73.30
2023-05-01T20:44:28.690Z,73.30
2023-05-01T20:46:56.535Z,73.50
2023-05-01T20:49:24.398Z,73.60
2023-05-01T20:51:52.139Z,73.60
2023-05-01T20:54:21.381Z,73.60
2023-05-01T20:56:49.174Z,73.60
2023-05-01T20:59:17.268Z,73.70
2023-05-01T21:01:45.076Z,73.70
2023-05-01T21:04:13.583Z,73.80
2023-05-01T21:06:41.468Z,73.90
2023-05-01T21:09:11.018Z,74.10
2023-05-01T21:11:41.823Z,74.00
2023-05-01T21:14:12.945Z,74.10
2023-05-01T21:16:41.595Z,74.20
2023-05-01T21:19:11.727Z,74.30
2023-05-01T21:21:39.953Z,74.50
2023-05-01T21:24:09.086Z,74.40
2023-05-01T21:26:36.997Z,74.60
2023-05-01T21:29:06.117Z,75.50
2023-05-01T21:31:34.264Z,74.70
2023-05-01T21:34:03.382Z,74.70
2023-05-01T21:36:31.213Z,74.80
2023-05-01T21:39:01.295Z,74.80
2023-05-01T21:41:29.168Z,74.80
2023-05-01T21:43:56.905Z,75.00
2023-05-01T21:46:26.248Z,75.00
2023-05-01T21:48:54.152Z,75.00
2023-05-01T21:51:26.782Z,75.00
2023-05-01T21:53:55.221Z,75.10
2023-05-01T21:56:23.280Z,75.20
2023-05-01T21:58:51.144Z,75.20
2023-05-01T22:01:27.513Z,75.30
2023-05-01T22:03:55.901Z,75.30
2023-05-01T22:06:24.417Z,75.40
2023-05-01T22:08:52.887Z,75.40
2023-05-01T22:11:23.127Z,75.50
2023-05-01T22:13:50.883Z,75.60
2023-05-01T22:16:18.639Z,75.70
2023-05-01T22:18:49.963Z,75.70
2023-05-01T22:21:18.091Z,75.60
2023-05-01T22:23:45.801Z,75.70
2023-05-01T22:26:13.552Z,75.70
2023-05-01T22:28:41.999Z,76.00
2023-05-01T22:31:10.024Z,76.00
2023-05-01T22:33:37.759Z,76.00
2023-05-01T22:36:07.817Z,75.90
2023-05-01T22:38:35.872Z,75.90
2023-05-01T22:41:03.756Z,76.00
2023-05-01T22:43:31.723Z,76.00
2023-05-01T22:45:59.574Z,76.10
2023-05-01T22:48:27.399Z,76.10
2023-05-01T22:50:55.466Z,76.20
2023-05-01T22:53:24.683Z,76.20
2023-05-01T22:55:52.426Z,76.40
2023-05-01T22:58:20.232Z,76.40
2023-05-01T23:00:47.984Z,76.30
2023-05-01T23:03:16.092Z,76.50
2023-05-01T23:05:44.477Z,76.50
2023-05-01T23:08:12.533Z,76.60
2023-05-01T23:10:43.041Z,76.60
2023-05-01T23:13:18.930Z,76.70
2023-05-01T23:15:49.786Z,77.60
2023-05-01T23:18:23.733Z,76.90
2023-05-01T23:20:52.879Z,76.80
2023-05-01T23:23:22.052Z,76.90
2023-05-01T23:25:51.169Z,76.90
2023-05-01T23:28:23.599Z,77.10
2023-05-01T23:30:55.487Z,77.10
2023-05-01T23:33:24.945Z,77.00
2023-05-01T23:35:52.904Z,77.10
2023-05-01T23:38:20.708Z,77.00
2023-05-01T23:40:49.615Z,77.10
2023-05-01T23:43:19.980Z,77.20
2023-05-01T23:45:48.150Z,77.20
2023-05-01T23:48:16.107Z,77.20
2023-05-01T23:50:44.145Z,77.20
2023-05-01T23:53:12.245Z,77.60
2023-05-01T23:55:39.996Z,77.60
2023-05-01T23:58:07.708Z,77.70
